sensor_id;sensor_type;location;lat;lon;timestamp;pressure;altitude;pressure_sealevel;temperature;humidity
29315;BME280;16320;53.954;9.506;2023-04-27T00:00:35;101580.94;;;4.56;100.00
29315;BME280;16320;53.954;9.506;2023-04-27T00:03:41;101577.41;;;4.62;100.00
29315;BME280;16320;53.954;9.506;2023-04-27T00:06:45;101580.81;;;4.66;100.00
29315;BME280;16320;53.954;9.506;2023-04-27T00:09:50;101580.75;;;4.72;100.00
29315;BME280;16320;53.954;9.506;2023-04-27T00:12:55;101603.41;;;4.64;100.00
29315;BME280;16320;53.954;9.506;2023-04-27T00:16:00;101611.28;;;4.59;100.00
29315;BME280;16320;53.954;9.506;2023-04-27T00:19:06;101603.75;;;4.36;100.00
29315;BME280;16320;53.954;9.506;2023-04-27T00:22:12;101586.41;;;4.36;100.00
29315;BME280;16320;53.954;9.506;2023-04-27T00:25:16;101593.31;;;4.39;100.00
29315;BME280;16320;53.954;9.506;2023-04-27T00:28:21;101601.13;;;4.39;100.00
29315;BME280;16320;53.954;9.506;2023-04-27T00:31:25;101598.56;;;4.36;100.00
29315;BME280;16320;53.954;9.506;2023-04-27T00:34:30;101589.00;;;4.38;100.00
29315;BME280;16320;53.954;9.506;2023-04-27T00:37:34;101596.78;;;4.38;100.00
29315;BME280;16320;53.954;9.506;2023-04-27T00:40:39;101602.03;;;4.35;100.00
29315;BME280;16320;53.954;9.506;2023-04-27T00:43:45;101612.44;;;4.35;100.00
29315;BME280;16320;53.954;9.506;2023-04-27T00:46:49;101615.03;;;4.33;100.00
29315;BME280;16320;53.954;9.506;2023-04-27T00:49:54;101620.28;;;4.29;100.00
29315;BME280;16320;53.954;9.506;2023-04-27T00:53:00;101623.00;;;4.22;100.00
29315;BME280;16320;53.954;9.506;2023-04-27T00:56:06;101631.72;;;4.15;100.00
29315;BME280;16320;53.954;9.506;2023-04-27T00:59:10;101633.53;;;4.07;100.00
29315;BME280;16320;53.954;9.506;2023-04-27T01:02:16;101637.06;;;4.03;100.00
29315;BME280;16320;53.954;9.506;2023-04-27T01:05:20;101635.31;;;4.02;100.00
29315;BME280;16320;53.954;9.506;2023-04-27T01:08:25;101644.84;;;4.03;100.00
29315;BME280;16320;53.954;9.506;2023-04-27T01:11:29;101643.16;;;3.97;100.00
29315;BME280;16320;53.954;9.506;2023-04-27T01:14:35;101644.03;;;3.96;100.00
29315;BME280;16320;53.954;9.506;2023-04-27T01:17:39;101638.88;;;3.95;100.00
29315;BME280;16320;53.954;9.506;2023-04-27T01:20:45;101634.50;;;3.97;100.00
29315;BME280;16320;53.954;9.506;2023-04-27T01:23:49;101634.44;;;4.05;100.00
29315;BME280;16320;53.954;9.506;2023-04-27T01:26:53;101638.78;;;4.01;100.00
29315;BME280;16320;53.954;9.506;2023-04-27T01:29:57;101643.16;;;3.97;100.00
29315;BME280;16320;53.954;9.506;2023-04-27T01:33:02;101652.72;;;3.94;100.00
29315;BME280;16320;53.954;9.506;2023-04-27T01:36:08;101645.81;;;3.90;100.00
29315;BME280;16320;53.954;9.506;2023-04-27T01:39:12;101651.09;;;3.83;100.00
29315;BME280;16320;53.954;9.506;2023-04-27T01:42:17;101651.13;;;3.80;100.00
29315;BME280;16320;53.954;9.506;2023-04-27T01:45:22;101651.16;;;3.77;100.00
29315;BME280;16320;53.954;9.506;2023-04-27T01:48:26;101659.81;;;3.76;100.00
29315;BME280;16320;53.954;9.506;2023-04-27T01:51:31;101670.19;;;3.79;100.00
29315;BME280;16320;53.954;9.506;2023-04-27T01:54:35;101677.97;;;3.81;100.00
29315;BME280;16320;53.954;9.506;2023-04-27T01:57:40;101685.00;;;3.66;100.00
29315;BME280;16320;53.954;9.506;2023-04-27T02:00:44;101692.00;;;3.60;100.00
29315;BME280;16320;53.954;9.506;2023-04-27T02:03:48;101692.06;;;3.47;100.00
29315;BME280;16320;53.954;9.506;2023-04-27T02:06:53;101673.88;;;3.47;100.00
29315;BME280;16320;53.954;9.506;2023-04-27T02:09:58;101683.28;;;3.65;100.00
29315;BME280;16320;53.954;9.506;2023-04-27T02:13:02;101690.13;;;3.79;100.00
29315;BME280;16320;53.954;9.506;2023-04-27T02:16:06;101680.50;;;3.92;100.00
29315;BME280;16320;53.954;9.506;2023-04-27T02:19:11;101680.47;;;3.95;100.00
29315;BME280;16320;53.954;9.506;2023-04-27T02:22:16;101678.72;;;3.94;100.00
29315;BME280;16320;53.954;9.506;2023-04-27T02:25:21;101675.28;;;3.92;100.00
29315;BME280;16320;53.954;9.506;2023-04-27T02:28:25;101683.16;;;3.82;100.00
29315;BME280;16320;53.954;9.506;2023-04-27T02:31:30;101680.56;;;3.82;100.00
29315;BME280;16320;53.954;9.506;2023-04-27T02:34:34;101686.59;;;3.84;100.00
29315;BME280;16320;53.954;9.506;2023-04-27T02:37:39;101680.56;;;3.81;100.00
29315;BME280;16320;53.954;9.506;2023-04-27T02:40:44;101684.03;;;3.81;100.00
29315;BME280;16320;53.954;9.506;2023-04-27T02:43:49;101682.34;;;3.77;100.00
29315;BME280;16320;53.954;9.506;2023-04-27T02:46:54;101684.94;;;3.79;100.00
29315;BME280;16320;53.954;9.506;2023-04-27T02:50:00;101685.81;;;3.73;100.00
29315;BME280;16320;53.954;9.506;2023-04-27T02:53:04;101681.53;;;3.67;100.00
29315;BME280;16320;53.954;9.506;2023-04-27T02:56:09;101686.75;;;3.67;100.00
29315;BME280;16320;53.954;9.506;2023-04-27T02:59:13;101689.34;;;3.66;100.00
29315;BME280;16320;53.954;9.506;2023-04-27T03:02:19;101682.47;;;3.59;100.00
29315;BME280;16320;53.954;9.506;2023-04-27T03:05:25;101679.00;;;3.60;100.00
29315;BME280;16320;53.954;9.506;2023-04-27T03:08:31;101671.19;;;3.64;100.00
29315;BME280;16320;53.954;9.506;2023-04-27T03:11:36;101679.81;;;3.68;100.00
29315;BME280;16320;53.954;9.506;2023-04-27T03:14:40;101687.59;;;3.66;100.00
29315;BME280;16320;53.954;9.506;2023-04-27T03:17:45;101681.56;;;3.64;100.00
29315;BME280;16320;53.954;9.506;2023-04-27T03:20:49;101690.22;;;3.63;100.00
29315;BME280;16320;53.954;9.506;2023-04-27T03:23:54;101688.53;;;3.62;100.00
29315;BME280;16320;53.954;9.506;2023-04-27T03:26:58;101692.00;;;3.60;100.00
29315;BME280;16320;53.954;9.506;2023-04-27T03:30:04;101703.22;;;3.62;100.00
29315;BME280;16320;53.954;9.506;2023-04-27T03:33:08;101702.34;;;3.64;100.00
29315;BME280;16320;53.954;9.506;2023-04-27T03:36:14;101705.00;;;3.57;100.00
29315;BME280;16320;53.954;9.506;2023-04-27T03:39:19;101705.00;;;3.54;100.00
29315;BME280;16320;53.954;9.506;2023-04-27T03:42:23;101696.34;;;3.55;100.00
29315;BME280;16320;53.954;9.506;2023-04-27T03:45:27;101703.25;;;3.57;100.00
29315;BME280;16320;53.954;9.506;2023-04-27T03:48:31;101701.53;;;3.58;100.00
29315;BME280;16320;53.954;9.506;2023-04-27T03:51:36;101703.25;;;3.56;100.00
29315;BME280;16320;53.954;9.506;2023-04-27T03:54:41;101704.16;;;3.53;100.00
29315;BME280;16320;53.954;9.506;2023-04-27T03:57:46;101703.31;;;3.50;100.00
29315;BME280;16320;53.954;9.506;2023-04-27T04:00:50;101703.34;;;3.48;100.00
29315;BME280;16320;53.954;9.506;2023-04-27T04:03:55;101708.53;;;3.46;100.00
29315;BME280;16320;53.954;9.506;2023-04-27T04:07:00;101703.34;;;3.46;100.00
29315;BME280;16320;53.954;9.506;2023-04-27T04:10:07;101708.53;;;3.46;100.00
29315;BME280;16320;53.954;9.506;2023-04-27T04:13:12;101708.53;;;3.46;100.00
29315;BME280;16320;53.954;9.506;2023-04-27T04:16:16;101709.41;;;3.44;100.00
29315;BME280;16320;53.954;9.506;2023-04-27T04:19:20;101712.00;;;3.45;100.00
29315;BME280;16320;53.954;9.506;2023-04-27T04:22:25;101714.59;;;3.47;100.00
29315;BME280;16320;53.954;9.506;2023-04-27T04:25:30;101722.38;;;3.48;100.00
29315;BME280;16320;53.954;9.506;2023-04-27T04:28:35;101727.56;;;3.52;100.00
29315;BME280;16320;53.954;9.506;2023-04-27T04:31:40;101723.19;;;3.55;100.00
29315;BME280;16320;53.954;9.506;2023-04-27T04:34:49;101730.13;;;3.58;100.00
29315;BME280;16320;53.954;9.506;2023-04-27T04:37:56;101731.78;;;3.63;100.00
29315;BME280;16320;53.954;9.506;2023-04-27T04:41:01;101728.31;;;3.71;100.00
29315;BME280;16320;53.954;9.506;2023-04-27T04:44:05;101728.22;;;3.77;100.00
29315;BME280;16320;53.954;9.506;2023-04-27T04:47:10;101739.44;;;3.85;100.00
29315;BME280;16320;53.954;9.506;2023-04-27T04:50:15;101733.41;;;3.81;100.00
29315;BME280;16320;53.954;9.506;2023-04-27T04:53:19;101732.56;;;3.79;100.00
29315;BME280;16320;53.954;9.506;2023-04-27T04:56:24;101738.56;;;3.86;100.00
29315;BME280;16320;53.954;9.506;2023-04-27T04:59:32;101732.59;;;3.73;100.00
29315;BME280;16320;53.954;9.506;2023-04-27T05:02:38;101736.78;;;3.93;100.00
29315;BME280;16320;53.954;9.506;2023-04-27T05:05:43;101737.66;;;3.92;100.00
29315;BME280;16320;53.954;9.506;2023-04-27T05:08:47;101736.84;;;3.85;100.00
29315;BME280;16320;53.954;9.506;2023-04-27T05:11:52;101734.28;;;3.83;100.00
29315;BME280;16320;53.954;9.506;2023-04-27T05:14:56;101735.94;;;3.91;100.00
29315;BME280;16320;53.954;9.506;2023-04-27T05:18:00;101739.34;;;3.96;100.00
29315;BME280;16320;53.954;9.506;2023-04-27T05:21:05;101741.06;;;4.00;100.00
29315;BME280;16320;53.954;9.506;2023-04-27T05:24:17;101735.06;;;3.95;100.00
29315;BME280;16320;53.954;9.506;2023-04-27T05:27:21;101740.09;;;4.13;100.00
29315;BME280;16320;53.954;9.506;2023-04-27T05:30:26;101740.00;;;4.24;100.00
29315;BME280;16320;53.954;9.506;2023-04-27T05:33:30;101738.19;;;4.34;100.00
29315;BME280;16320;53.954;9.506;2023-04-27T05:36:35;101736.38;;;4.39;100.00
29315;BME280;16320;53.954;9.506;2023-04-27T05:39:39;101737.06;;;4.56;100.00
29315;BME280;16320;53.954;9.506;2023-04-27T05:42:47;101740.53;;;4.57;100.00
29315;BME280;16320;53.954;9.506;2023-04-27T05:45:52;101723.13;;;4.64;100.00
29315;BME280;16320;53.954;9.506;2023-04-27T05:48:56;101725.53;;;4.79;100.00
29315;BME280;16320;53.954;9.506;2023-04-27T05:52:00;101723.56;;;5.01;100.00
29315;BME280;16320;53.954;9.506;2023-04-27T05:55:06;101706.84;;;5.18;100.00
29315;BME280;16320;53.954;9.506;2023-04-27T05:58:11;101708.28;;;5.39;100.00
29315;BME280;16320;53.954;9.506;2023-04-27T06:01:15;101712.09;;;5.75;100.00
29315;BME280;16320;53.954;9.506;2023-04-27T06:04:20;101705.59;;;6.02;100.00
29315;BME280;16320;53.954;9.506;2023-04-27T06:07:24;101719.41;;;6.08;100.00
29315;BME280;16320;53.954;9.506;2023-04-27T06:10:29;101730.16;;;5.86;100.00
29315;BME280;16320;53.954;9.506;2023-04-27T06:13:34;101719.03;;;5.75;100.00
29315;BME280;16320;53.954;9.506;2023-04-27T06:16:38;101723.59;;;5.60;100.00
29315;BME280;16320;53.954;9.506;2023-04-27T06:19:44;101730.41;;;5.71;100.00
29315;BME280;16320;53.954;9.506;2023-04-27T06:22:49;101723.59;;;5.60;100.00
29315;BME280;16320;53.954;9.506;2023-04-27T06:25:53;101723.50;;;5.66;100.00
29315;BME280;16320;53.954;9.506;2023-04-27T06:28:58;101717.16;;;5.84;100.00
29315;BME280;16320;53.954;9.506;2023-04-27T06:32:02;101719.66;;;5.91;100.00
29315;BME280;16320;53.954;9.506;2023-04-27T06:35:09;101724.78;;;5.98;100.00
29315;BME280;16320;53.954;9.506;2023-04-27T06:38:14;101727.41;;;5.95;100.00
29315;BME280;16320;53.954;9.506;2023-04-27T06:41:18;101729.03;;;6.04;100.00
29315;BME280;16320;53.954;9.506;2023-04-27T06:44:22;101735.00;;;6.11;100.00
29315;BME280;16320;53.954;9.506;2023-04-27T06:47:26;101745.19;;;6.26;100.00
29315;BME280;16320;53.954;9.506;2023-04-27T06:50:31;101744.94;;;6.40;100.00
29315;BME280;16320;53.954;9.506;2023-04-27T06:53:35;101754.47;;;6.43;100.00
29315;BME280;16320;53.954;9.506;2023-04-27T06:56:39;101746.66;;;6.41;100.00
29315;BME280;16320;53.954;9.506;2023-04-27T06:59:44;101754.44;;;6.44;100.00
29315;BME280;16320;53.954;9.506;2023-04-27T07:02:48;101748.31;;;6.47;100.00
29315;BME280;16320;53.954;9.506;2023-04-27T07:05:53;101750.72;;;6.57;100.00
29315;BME280;16320;53.954;9.506;2023-04-27T07:08:59;101753.03;;;6.74;100.00
29315;BME280;16320;53.954;9.506;2023-04-27T07:12:03;101752.03;;;6.80;100.00
29315;BME280;16320;53.954;9.506;2023-04-27T07:15:08;101739.41;;;7.02;100.00
29315;BME280;16320;53.954;9.506;2023-04-27T07:18:12;101734.72;;;7.18;100.00
29315;BME280;16320;53.954;9.506;2023-04-27T07:21:17;101727.41;;;7.34;100.00
29315;BME280;16320;53.954;9.506;2023-04-27T07:24:21;101723.59;;;7.49;100.00
29315;BME280;16320;53.954;9.506;2023-04-27T07:27:25;101716.31;;;7.62;100.00
29315;BME280;16320;53.954;9.506;2023-04-27T07:30:30;101714.03;;;7.48;100.00
29315;BME280;16320;53.954;9.506;2023-04-27T07:33:37;101707.94;;;7.47;100.00
29315;BME280;16320;53.954;9.506;2023-04-27T07:36:42;101710.00;;;7.33;100.00
29315;BME280;16320;53.954;9.506;2023-04-27T07:39:49;101703.47;;;7.13;100.00
29315;BME280;16320;53.954;9.506;2023-04-27T07:42:55;101699.22;;;7.08;100.00
29315;BME280;16320;53.954;9.506;2023-04-27T07:46:01;101699.25;;;7.06;100.00
29315;BME280;16320;53.954;9.506;2023-04-27T07:49:06;101704.91;;;7.27;100.00
29315;BME280;16320;53.954;9.506;2023-04-27T07:52:11;101694.09;;;7.42;100.00
29315;BME280;16320;53.954;9.506;2023-04-27T07:55:16;101702.84;;;7.79;100.00
29315;BME280;16320;53.954;9.506;2023-04-27T07:58:20;101701.63;;;7.92;100.00
29315;BME280;16320;53.954;9.506;2023-04-27T08:01:24;101694.63;;;7.93;100.00
29315;BME280;16320;53.954;9.506;2023-04-27T08:04:29;101685.28;;;7.84;100.00
29315;BME280;16320;53.954;9.506;2023-04-27T08:07:34;101674.47;;;7.62;100.00
29315;BME280;16320;53.954;9.506;2023-04-27T08:10:45;101666.47;;;7.68;100.00
29315;BME280;16320;53.954;9.506;2023-04-27T08:13:50;101663.34;;;7.90;100.00
29315;BME280;16320;53.954;9.506;2023-04-27T08:16:54;101658.59;;;8.04;100.00
29315;BME280;16320;53.954;9.506;2023-04-27T08:19:59;101648.72;;;8.15;100.00
29315;BME280;16320;53.954;9.506;2023-04-27T08:23:04;101649.31;;;8.25;100.00
29315;BME280;16320;53.954;9.506;2023-04-27T08:26:13;101647.53;;;8.27;100.00
29315;BME280;16320;53.954;9.506;2023-04-27T08:29:18;101644.88;;;8.29;100.00
29315;BME280;16320;53.954;9.506;2023-04-27T08:32:31;101650.28;;;8.22;100.00
29315;BME280;16320;53.954;9.506;2023-04-27T08:35:36;101654.75;;;8.19;100.00
29315;BME280;16320;53.954;9.506;2023-04-27T08:38:40;101660.97;;;8.13;100.00
29315;BME280;16320;53.954;9.506;2023-04-27T08:41:46;101661.50;;;7.93;100.00
29315;BME280;16320;53.954;9.506;2023-04-27T08:44:50;101653.13;;;7.80;100.00
29315;BME280;16320;53.954;9.506;2023-04-27T08:47:54;101648.78;;;7.79;100.00
29315;BME280;16320;53.954;9.506;2023-04-27T08:51:00;101658.50;;;7.74;100.00
29315;BME280;16320;53.954;9.506;2023-04-27T08:54:05;101651.00;;;7.95;100.00
29315;BME280;16320;53.954;9.506;2023-04-27T08:57:13;101646.06;;;8.17;100.00
29315;BME280;16320;53.954;9.506;2023-04-27T09:00:19;101651.56;;;8.39;100.00
29315;BME280;16320;53.954;9.506;2023-04-27T09:03:24;101642.16;;;8.65;100.00
29315;BME280;16320;53.954;9.506;2023-04-27T09:06:33;101627.22;;;8.96;100.00
29315;BME280;16320;53.954;9.506;2023-04-27T09:09:38;101633.63;;;9.16;100.00
29315;BME280;16320;53.954;9.506;2023-04-27T09:12:58;101633.34;;;8.97;100.00
29315;BME280;16320;53.954;9.506;2023-04-27T09:16:04;101631.44;;;9.02;100.00
29315;BME280;16320;53.954;9.506;2023-04-27T09:19:10;101634.00;;;9.04;100.00
29315;BME280;16320;53.954;9.506;2023-04-27T09:22:14;101638.28;;;9.06;100.00
29315;BME280;16320;53.954;9.506;2023-04-27T09:25:27;101642.09;;;9.24;100.00
29315;BME280;16320;53.954;9.506;2023-04-27T09:28:33;101634.00;;;9.32;100.00
29315;BME280;16320;53.954;9.506;2023-04-27T09:31:39;101644.06;;;8.89;100.00
29315;BME280;16320;53.954;9.506;2023-04-27T09:34:43;101644.69;;;8.68;100.00
29315;BME280;16320;53.954;9.506;2023-04-27T09:37:49;101653.69;;;8.57;100.00
29315;BME280;16320;53.954;9.506;2023-04-27T09:40:56;101649.63;;;8.47;100.00
29315;BME280;16320;53.954;9.506;2023-04-27T09:44:01;101653.50;;;8.32;100.00
29315;BME280;16320;53.954;9.506;2023-04-27T09:47:06;101658.75;;;8.32;100.00
29315;BME280;16320;53.954;9.506;2023-04-27T09:50:12;101664.09;;;8.28;100.00
29315;BME280;16320;53.954;9.506;2023-04-27T09:53:40;101669.22;;;8.32;100.00
29315;BME280;16320;53.954;9.506;2023-04-27T10:07:53;101711.00;;;7.65;100.00
29315;BME280;16320;53.954;9.506;2023-04-27T10:10:58;101720.09;;;7.48;100.00
29315;BME280;16320;53.954;9.506;2023-04-27T10:14:06;101736.28;;;7.66;100.00
29315;BME280;16320;53.954;9.506;2023-04-27T10:17:11;101736.66;;;7.86;100.00
29315;BME280;16320;53.954;9.506;2023-04-27T10:20:16;101734.47;;;8.04;100.00
29315;BME280;16320;53.954;9.506;2023-04-27T10:23:25;101738.16;;;8.31;100.00
29315;BME280;16320;53.954;9.506;2023-04-27T10:26:30;101729.47;;;8.31;100.00
29315;BME280;16320;53.954;9.506;2023-04-27T10:29:44;101734.84;;;8.24;100.00
29315;BME280;16320;53.954;9.506;2023-04-27T10:32:55;101732.06;;;8.31;100.00
29315;BME280;16320;53.954;9.506;2023-04-27T10:36:00;101736.53;;;8.61;100.00
29315;BME280;16320;53.954;9.506;2023-04-27T10:39:20;101727.16;;;8.84;100.00
29315;BME280;16320;53.954;9.506;2023-04-27T10:42:40;101718.59;;;9.09;100.00
29315;BME280;16320;53.954;9.506;2023-04-27T10:45:45;101726.88;;;9.25;100.00
29315;BME280;16320;53.954;9.506;2023-04-27T10:48:50;101713.94;;;9.47;100.00
29315;BME280;16320;53.954;9.506;2023-04-27T10:51:57;101712.44;;;9.66;100.00
29315;BME280;16320;53.954;9.506;2023-04-27T10:55:20;101709.03;;;9.36;100.00
29315;BME280;16320;53.954;9.506;2023-04-27T10:58:25;101716.91;;;9.91;100.00
29315;BME280;16320;53.954;9.506;2023-04-27T11:01:48;101703.28;;;10.06;100.00
29315;BME280;16320;53.954;9.506;2023-04-27T11:04:55;101700.34;;;10.16;100.00
29315;BME280;16320;53.954;9.506;2023-04-27T11:08:08;101704.06;;;10.08;100.00
29315;BME280;16320;53.954;9.506;2023-04-27T11:11:14;101693.31;;;9.91;100.00
29315;BME280;16320;53.954;9.506;2023-04-27T11:14:20;101694.94;;;9.94;100.00
29315;BME280;16320;53.954;9.506;2023-04-27T11:17:29;101696.22;;;9.82;100.00
29315;BME280;16320;53.954;9.506;2023-04-27T11:20:33;101700.00;;;10.00;100.00
29315;BME280;16320;53.954;9.506;2023-04-27T11:23:39;101691.44;;;10.70;100.00
29315;BME280;16320;53.954;9.506;2023-04-27T11:26:50;101689.53;;;11.21;100.00
29315;BME280;16320;53.954;9.506;2023-04-27T11:29:56;101668.22;;;10.34;100.00
29315;BME280;16320;53.954;9.506;2023-04-27T11:33:07;101675.31;;;9.79;100.00
29315;BME280;16320;53.954;9.506;2023-04-27T11:36:21;101678.06;;;9.49;100.00
29315;BME280;16320;53.954;9.506;2023-04-27T11:39:27;101688.13;;;9.34;100.00
29315;BME280;16320;53.954;9.506;2023-04-27T11:42:32;101687.69;;;9.20;100.00
29315;BME280;16320;53.954;9.506;2023-04-27T11:45:41;101677.09;;;9.23;100.00
29315;BME280;16320;53.954;9.506;2023-04-27T11:48:48;101676.22;;;9.23;100.00
29315;BME280;16320;53.954;9.506;2023-04-27T11:51:52;101683.56;;;9.11;100.00
29315;BME280;16320;53.954;9.506;2023-04-27T11:54:58;101690.66;;;9.08;100.00
29315;BME280;16320;53.954;9.506;2023-04-27T11:58:03;101695.44;;;8.93;100.00
29315;BME280;16320;53.954;9.506;2023-04-27T12:01:08;101700.47;;;8.71;100.00
29315;BME280;16320;53.954;9.506;2023-04-27T12:04:13;101689.09;;;8.71;100.00
29315;BME280;16320;53.954;9.506;2023-04-27T12:07:19;101687.66;;;8.60;100.00
29315;BME280;16320;53.954;9.506;2023-04-27T12:10:24;101692.16;;;8.55;100.00
29315;BME280;16320;53.954;9.506;2023-04-27T12:13:29;101689.50;;;8.57;100.00
29315;BME280;16320;53.954;9.506;2023-04-27T12:16:33;101696.59;;;8.53;100.00
29315;BME280;16320;53.954;9.506;2023-04-27T12:19:38;101705.66;;;8.40;100.00
29315;BME280;16320;53.954;9.506;2023-04-27T12:22:42;101713.50;;;8.40;100.00
29315;BME280;16320;53.954;9.506;2023-04-27T12:25:46;101716.28;;;8.34;100.00
29315;BME280;16320;53.954;9.506;2023-04-27T12:28:51;101711.44;;;8.18;100.00
29315;BME280;16320;53.954;9.506;2023-04-27T12:31:57;101719.03;;;8.29;100.00
29315;BME280;16320;53.954;9.506;2023-04-27T12:35:02;101720.78;;;8.29;100.00
29315;BME280;16320;53.954;9.506;2023-04-27T12:38:07;101721.59;;;8.31;100.00
29315;BME280;16320;53.954;9.506;2023-04-27T12:41:12;101723.78;;;8.13;100.00
29315;BME280;16320;53.954;9.506;2023-04-27T12:44:18;101740.81;;;8.30;100.00
29315;BME280;16320;53.954;9.506;2023-04-27T12:47:23;101746.06;;;8.30;100.00
29315;BME280;16320;53.954;9.506;2023-04-27T12:50:31;101741.44;;;8.39;100.00
29315;BME280;16320;53.954;9.506;2023-04-27T12:53:36;101740.97;;;8.23;100.00
29315;BME280;16320;53.954;9.506;2023-04-27T12:56:40;101748.00;;;8.21;100.00
29315;BME280;16320;53.954;9.506;2023-04-27T12:59:45;101755.25;;;8.10;100.00
29315;BME280;16320;53.954;9.506;2023-04-27T13:02:51;101768.88;;;7.88;100.00
29315;BME280;16320;53.954;9.506;2023-04-27T13:05:55;101769.78;;;7.86;100.00
29315;BME280;16320;53.954;9.506;2023-04-27T13:09:00;101775.63;;;7.60;100.00
29315;BME280;16320;53.954;9.506;2023-04-27T13:12:04;101784.69;;;7.45;100.00
29315;BME280;16320;53.954;9.506;2023-04-27T13:15:09;101798.31;;;7.59;100.00
29315;BME280;16320;53.954;9.506;2023-04-27T13:18:14;101806.63;;;7.78;100.00
29315;BME280;16320;53.954;9.506;2023-04-27T13:21:19;101800.56;;;7.75;100.00
29315;BME280;16320;53.954;9.506;2023-04-27T13:24:23;101804.94;;;7.74;100.00
29315;BME280;16320;53.954;9.506;2023-04-27T13:27:27;101804.28;;;7.64;100.00
29315;BME280;16320;53.954;9.506;2023-04-27T13:30:32;101798.41;;;7.55;100.00
29315;BME280;16320;53.954;9.506;2023-04-27T13:33:41;101804.38;;;7.60;100.00
29315;BME280;16320;53.954;9.506;2023-04-27T13:36:45;101798.28;;;7.61;100.00
29315;BME280;16320;53.954;9.506;2023-04-27T13:39:53;101803.09;;;7.79;100.00
29315;BME280;16320;53.954;9.506;2023-04-27T13:42:57;101796.69;;;7.91;100.00
29315;BME280;16320;53.954;9.506;2023-04-27T13:46:02;101791.41;;;7.94;100.00
29315;BME280;16320;53.954;9.506;2023-04-27T13:49:06;101789.16;;;7.79;100.00
29315;BME280;16320;53.954;9.506;2023-04-27T13:52:10;101787.31;;;7.82;100.00
29315;BME280;16320;53.954;9.506;2023-04-27T13:55:15;101792.03;;;8.04;100.00
29315;BME280;16320;53.954;9.506;2023-04-27T13:58:19;101783.22;;;8.08;100.00
29315;BME280;16320;53.954;9.506;2023-04-27T14:01:25;101779.63;;;8.12;100.00
29315;BME280;16320;53.954;9.506;2023-04-27T14:04:31;101782.47;;;8.04;100.00
29315;BME280;16320;53.954;9.506;2023-04-27T14:07:36;101781.22;;;7.83;100.00
29315;BME280;16320;53.954;9.506;2023-04-27T14:10:40;101776.78;;;7.85;100.00
29315;BME280;16320;53.954;9.506;2023-04-27T14:13:46;101774.06;;;7.90;100.00
29315;BME280;16320;53.954;9.506;2023-04-27T14:16:51;101786.16;;;7.94;100.00
29315;BME280;16320;53.954;9.506;2023-04-27T14:19:57;101773.66;;;8.07;100.00
29315;BME280;16320;53.954;9.506;2023-04-27T14:23:04;101772.19;;;8.31;100.00
29315;BME280;16320;53.954;9.506;2023-04-27T14:26:09;101764.03;;;8.45;100.00
29315;BME280;16320;53.954;9.506;2023-04-27T14:29:13;101760.22;;;8.57;100.00
29315;BME280;16320;53.954;9.506;2023-04-27T14:32:18;101745.09;;;9.29;100.00
29315;BME280;16320;53.954;9.506;2023-04-27T14:35:23;101722.78;;;10.24;100.00
29315;BME280;16320;53.954;9.506;2023-04-27T14:38:28;101698.03;;;11.50;100.00
29315;BME280;16320;53.954;9.506;2023-04-27T14:41:32;101678.94;;;12.30;100.00
29315;BME280;16320;53.954;9.506;2023-04-27T14:44:36;101668.41;;;11.45;100.00
29315;BME280;16320;53.954;9.506;2023-04-27T14:47:41;101684.13;;;10.78;100.00
29315;BME280;16320;53.954;9.506;2023-04-27T14:50:46;101678.97;;;10.75;100.00
29315;BME280;16320;53.954;9.506;2023-04-27T14:53:51;101678.06;;;10.53;100.00
29315;BME280;16320;53.954;9.506;2023-04-27T14:56:56;101678.34;;;9.93;100.00
29315;BME280;16320;53.954;9.506;2023-04-27T15:00:02;101685.63;;;11.08;100.00
29315;BME280;16320;53.954;9.506;2023-04-27T15:03:13;101670.66;;;11.98;100.00
29315;BME280;16320;53.954;9.506;2023-04-27T15:06:18;101670.22;;;11.65;100.00
29315;BME280;16320;53.954;9.506;2023-04-27T15:09:22;101670.84;;;11.71;100.00
29315;BME280;16320;53.954;9.506;2023-04-27T15:12:27;101664.41;;;12.01;100.00
29315;BME280;16320;53.954;9.506;2023-04-27T15:15:31;101661.91;;;11.98;100.00
29315;BME280;16320;53.954;9.506;2023-04-27T15:18:36;101658.91;;;11.42;100.00
29315;BME280;16320;53.954;9.506;2023-04-27T15:21:40;101656.66;;;11.09;100.00
29315;BME280;16320;53.954;9.506;2023-04-27T15:24:45;101653.34;;;11.04;100.00
29315;BME280;16320;53.954;9.506;2023-04-27T15:27:52;101648.69;;;11.34;100.00
29315;BME280;16320;53.954;9.506;2023-04-27T15:30:56;101650.72;;;11.04;100.00
29315;BME280;16320;53.954;9.506;2023-04-27T15:34:01;101655.22;;;10.55;100.00
29315;BME280;16320;53.954;9.506;2023-04-27T15:37:05;101650.94;;;10.02;100.00
29315;BME280;16320;53.954;9.506;2023-04-27T15:40:11;101648.69;;;9.91;100.00
29315;BME280;16320;53.954;9.506;2023-04-27T15:43:15;101651.66;;;10.05;100.00
29315;BME280;16320;53.954;9.506;2023-04-27T15:46:20;101653.22;;;9.86;100.00
29315;BME280;16320;53.954;9.506;2023-04-27T15:49:24;101643.31;;;9.94;100.00
29315;BME280;16320;53.954;9.506;2023-04-27T15:52:28;101647.25;;;10.07;100.00
29315;BME280;16320;53.954;9.506;2023-04-27T15:55:33;101644.16;;;10.20;100.00
29315;BME280;16320;53.954;9.506;2023-04-27T15:58:37;101640.28;;;10.32;100.00
29315;BME280;16320;53.954;9.506;2023-04-27T16:01:42;101638.47;;;10.34;100.00
29315;BME280;16320;53.954;9.506;2023-04-27T16:04:47;101640.16;;;10.10;100.00
29315;BME280;16320;53.954;9.506;2023-04-27T16:07:51;101633.59;;;9.98;100.00
29315;BME280;16320;53.954;9.506;2023-04-27T16:10:56;101634.00;;;9.85;100.00
29315;BME280;16320;53.954;9.506;2023-04-27T16:14:00;101628.72;;;9.60;100.00
29315;BME280;16320;53.954;9.506;2023-04-27T16:17:32;101635.91;;;9.80;100.00